Content
SEND FEEDBACK

Daily
Averages
Monthly
Summary
Australia

DURAL, NEW SOUTH WALES


Home > Oceania > Australia > New South Wales
Elevation: 183 meters     Latitude: 33 43S     Longitude: 151 04E

WEATHER
 
SELECT A DAY
Number of Records: 297,464;   Date Range: 7/1/96 - 7/27/14
 
SHARE

PRINT THIS DATA

[ ← Previous Day ]
WEATHER ALMANAC - 13 FEBRUARY, 2013
[ Next Day → ]
[ °F ]   °C
Weather ElementAverageHighLow
Temperature20.7 °C22 °C (1:00 pm)19 °C (4:30 pm)
Dewpoint16.1 °C18 °C (4:37 pm)14.4 °C (5:00 am)
Humidity73.9 %94 % (4:37 pm)61 % (5:00 am)
Barometer1022.4 hPa1024.4 hPa (11:00 am)1021 hPa (1:30 am)
Wind Speed20.4 km/h33.3 km/h (4:16 pm)
Weather ElementAverage
Visibility11.6 km
Wind DirectionSSE (173.1 °)

Weather ElementTotal
Precipitation---
Cooling Degree Days2.2 (Base 18.3)
Growing Degree Days10.5 (Base 10)
Averaged from 64 records on 13 February, 2013
WEATHER CONDITIONS BREAKOUT
WIND DIRECTION BREAKOUT
WEATHER BY HOUR - 13 FEBRUARY, 2013
[ °F ]   °C
Local TimeTemperatureDewpointHumidityBarometerVisibilityWind DirectionWind SpeedGust SpeedPrecipitationEventsConditions
12:00 AM21 °C16 °C73 %1022 hPa10 kmSouth (170°)20.4 km/hMostly Cloudy
12:30 AM21 °C16 °C73 %1022 hPa10 kmSouth (170°)22.2 km/hMostly Cloudy
1:00 AM21 °C15 °C68 %1022 hPa10 kmSouth (170°)20.4 km/hMostly Cloudy
1:30 AM21 °C16 °C73 %1021 hPa10 kmSouth (170°)22.2 km/hMostly Cloudy
2:00 AM20.6 °C15.6 °C65 %1022 hPaSouth (180°)24.1 km/h
2:00 AM21 °C15 °C68 %1021 hPa10 kmSouth (180°)24.1 km/hMostly Cloudy
2:30 AM21 °C15 °C68 %1021 hPa10 kmSouth (190°)27.8 km/hMostly Cloudy
3:00 AM20.6 °C15.6 °C64 %1021.7 hPa25.7 kmSouth (190°)27.8 km/hMostly Cloudy
3:30 AM21 °C15 °C68 %1021 hPa10 kmSouth (190°)27.8 km/hMostly Cloudy
4:00 AM21 °C15 °C68 %1021 hPa10 kmSouth (190°)27.8 km/hRainLight Rain Showers
4:30 AM20 °C15 °C73 %1021 hPa10 kmSouth (190°)25.9 km/hRainLight Rain Showers
5:00 AM20.6 °C14.4 °C61 %1021.7 hPaSouth (190°)29.6 km/h
5:00 AM20 °C15 °C73 %1021 hPa10 kmSouth (190°)29.6 km/hRainLight Rain Showers
5:30 AM20 °C15 °C73 %1021 hPa10 kmSouth (170°)24.1 km/hRainLight Rain Showers
6:00 AM20.6 °C15 °C64 %1022 hPa19.3 kmSouth (190°)24.1 km/hRainLight Rain Showers
6:00 AM20 °C15 °C73 %1021 hPa10 kmSouth (190°)24.1 km/hMostly Cloudy
6:30 AM20 °C15 °C73 %1022 hPa10 kmSouth (190°)27.8 km/hMostly Cloudy
7:00 AM21 °C15 °C68 %1022 hPa10 kmSouth (190°)27.8 km/hMostly Cloudy
7:30 AM20 °C15 °C73 %1022 hPa10 kmSouth (190°)25.9 km/hMostly Cloudy
8:00 AM20 °C15.6 °C68 %1023.4 hPaSSW (200°)20.4 km/h
8:00 AM20 °C16 °C78 %1023 hPa10 kmSSW (200°)20.4 km/hMostly Cloudy
8:30 AM20 °C16 °C78 %1023 hPa10 kmSSW (200°)24.1 km/hRainLight Rain Showers
9:00 AM20 °C16.1 °C71 %1023.7 hPa19.3 kmSSW (200°)20.4 km/hRainLight Rain Showers
9:00 AM20 °C16 °C78 %1023 hPa10 kmSSW (200°)20.4 km/hRainLight Rain Showers
9:30 AM21 °C16 °C73 %1023 hPa10 kmSouth (190°)22.2 km/hMostly Cloudy
10:00 AM20 °C16 °C78 %1024 hPa10 kmSouth (180°)27.8 km/hRainLight Rain Showers
10:30 AM21 °C17 °C78 %1024 hPa10 kmSouth (190°)29.6 km/hMostly Cloudy
11:00 AM20.6 °C16.7 °C71 %1024.4 hPaSouth (190°)25.9 km/h
11:00 AM20 °C16 °C78 %1024 hPa10 kmSouth (190°)25.9 km/hMostly Cloudy
11:30 AM21 °C16 °C73 %1023 hPa10 kmSSW (200°)24.1 km/hMostly Cloudy
12:00 PM21.1 °C16.1 °C65 %1024 hPa25.7 kmSSW (210°)27.8 km/hPartly Cloudy
12:00 PM21 °C16 °C73 %1023 hPa10 kmSSW (210°)27.8 km/hMostly Cloudy
12:30 PM21 °C16 °C73 %1023 hPa10 kmSouth (190°)24.1 km/hMostly Cloudy
1:00 PM22 °C16 °C69 %1023 hPa10 kmSouth (180°)25.9 km/hMostly Cloudy
1:30 PM22 °C17 °C73 %1023 hPa10 kmSouth (170°)29.6 km/hMostly Cloudy
2:00 PM21.7 °C16.7 °C66 %1023.4 hPaSouth (180°)31.5 km/h
2:00 PM22 °C17 °C73 %1023 hPa10 kmSouth (180°)31.5 km/hScattered Clouds
2:30 PM22 °C16 °C69 %1022 hPa10 kmSouth (180°)25.9 km/hScattered Clouds
3:00 PM21.7 °C16.7 °C65 %1022.7 hPa25.7 kmSouth (170°)25.9 km/hMostly Cloudy
3:00 PM21 °C17 °C78 %1022 hPa10 kmSouth (170°)25.9 km/hMostly Cloudy
3:30 PM22 °C17 °C73 %1022 hPa10 kmSouth (180°)25.9 km/hMostly Cloudy
4:00 PM22 °C16 °C69 %1022 hPa10 kmSouth (170°)24.1 km/hMostly Cloudy
4:16 PM21 °C17 °C78 %1022 hPa5 kmEast (90°)33.3 km/hRainRain Showers
4:30 PM19 °C17 °C88 %1022 hPa4 kmEast (80°)24.1 km/hRainRain Showers
4:37 PM19 °C18 °C94 %1022 hPa6 kmENE (70°)20.4 km/hRainLight Rain Showers
4:49 PM19 °C16 °C83 %1022 hPa10 kmENE (70°)13 km/hMostly Cloudy
5:00 PM19.4 °C17.2 °C82 %1022.4 hPaENE (60°)11.1 km/h
5:00 PM20 °C17 °C83 %1022 hPa10 kmENE (60°)11.1 km/hMostly Cloudy
5:30 PM21 °C16 °C73 %1022 hPa10 kmSSE (160°)9.3 km/hMostly Cloudy
6:00 PM20.6 °C16.1 °C68 %1022 hPa30.6 kmSouth (190°)9.3 km/hMostly Cloudy
6:00 PM21 °C16 °C73 %1021 hPa10 kmSouth (190°)9.3 km/hMostly Cloudy
6:30 PM21 °C17 °C78 %1021 hPa10 kmSouth (190°)11.1 km/hMostly Cloudy
7:00 PM21 °C16 °C73 %1021 hPa10 kmSouth (180°)13 km/hMostly Cloudy
7:30 PM21 °C16 °C73 %1022 hPa10 kmSouth (170°)13 km/hMostly Cloudy
8:00 PM21 °C16 °C73 %1022 hPa10 kmSouth (170°)9.3 km/hMostly Cloudy
8:30 PM21 °C17 °C78 %1022 hPa10 kmSouth (170°)7.4 km/hMostly Cloudy
9:00 PM21 °C17 °C78 %1022 hPa10 kmSouth (190°)7.4 km/hMostly Cloudy
9:00 PM20.6 °C16.7 °C72 %1022.4 hPa30.6 kmSouth (190°)7.4 km/hPartly Cloudy
9:30 PM21 °C17 °C78 %1022 hPa10 kmSouth (190°)7.4 km/hMostly Cloudy
10:00 PM20 °C17 °C83 %1022 hPa10 kmSSE (160°)1.9 km/hMostly Cloudy
10:30 PM20 °C17 °C83 %1023 hPa10 kmSouth (190°)5.6 km/hScattered Clouds
11:00 PM20 °C17.2 °C80 %1023.4 hPaSSE (160°)1.9 km/h
11:00 PM20 °C17 °C83 %1023 hPa10 kmSSE (160°)1.9 km/hScattered Clouds
11:30 PM20 °C18 °C88 %1022 hPa10 kmSouth (170°)5.6 km/hScattered Clouds
Hourly data recorded from YSSY, located 0 kilometers away from Dural, New South Wales







STORIES FROM OUR PARTNERS